Martin State Airport
KMTN : now visible

Airfield :











YOU CAN JOIN US ON...

 
LOGIN :

Register | Disclaimer

   EN    FR    IT 

 









Legend :    VFR   Marginal VFR   IFR   Intensive IFR   Very Intensive IFR
Visi :
Ceiling :
>= 8 km
>= 3000ft
5 to 8 km
1000 to 3000 ft
1500m to 5 km
500 to 1000 ft
800 to 1500m
200 to 500 ft
< 800m
< 200 ft
Symbols :   Thunderstorms  Fog  Heavy snow  Heavy precipitations  Wind > 20 kt






- Airport Elevation : 21 ft


KMTN - Martin State

CURRENT METAR :
  • 170327Z AUTO 32003KT 10SM OVC100 03/02 A3014 RMK AO2

EXPIRED METARs :
  • 170307Z AUTO 00000KT 10SM OVC100 03/02 A3013 RMK AO2
  • 170258Z 00000KT 10SM SKC 03/01 A3013
  • 170158Z 00000KT 10SM SKC 03/01 A3012
  • 170058Z 15003KT 10SM BKN110 06/01 A3011

TAF KMTN
Valid from the 17 at 00:00 until the 18 at 00:00 UTC


162332Z 1700/1724 19004KT P6SM BKN090
FM170800 34004KT P6SM OVC070
FM171700 04005KT P6SM BKN250 AMD NOT SKED 1702/1712



MET'MAP, your aeronautical weather chart ! - Copyright ORBIFLY December 2007 - Disclaimer

ORBIFLY MET'MAP TEAM :

Programming & Development : Alexandra Zaïnal
Concept & original design : Baudouin d'Aumeries
Assistance for programming : Marc-Olivier Méhu
Technical & hardware support : Manuel Goepfert

Contact : metmap@orbifly.com




SOURCES & CREDITS :

   NOAA       Earth
Advisory